sensor_id;sensor_type;location;lat;lon;timestamp;pressure;altitude;pressure_sealevel;temperature;humidity
6134;BME280;3098;42.678;23.364;2022-08-14T00:00:15;94392.00;;;17.61;100.00
6134;BME280;3098;42.678;23.364;2022-08-14T00:02:44;94319.88;;;17.22;100.00
6134;BME280;3098;42.678;23.364;2022-08-14T00:05:14;94367.66;;;17.47;100.00
6134;BME280;3098;42.678;23.364;2022-08-14T00:07:41;94380.75;;;17.52;100.00
6134;BME280;3098;42.678;23.364;2022-08-14T00:10:11;94386.25;;;17.62;100.00
6134;BME280;3098;42.678;23.364;2022-08-14T00:12:42;94378.31;;;17.69;100.00
6134;BME280;3098;42.678;23.364;2022-08-14T00:15:14;94365.59;;;17.63;100.00
6134;BME280;3098;42.678;23.364;2022-08-14T00:17:46;94338.41;;;17.64;100.00
6134;BME280;3098;42.678;23.364;2022-08-14T00:20:17;94366.22;;;17.83;100.00
6134;BME280;3098;42.678;23.364;2022-08-14T00:22:46;94364.09;;;17.65;100.00
6134;BME280;3098;42.678;23.364;2022-08-14T00:25:14;94363.69;;;17.63;100.00
6134;BME280;3098;42.678;23.364;2022-08-14T00:27:43;94343.69;;;17.57;100.00
6134;BME280;3098;42.678;23.364;2022-08-14T00:30:13;94368.50;;;17.80;100.00
6134;BME280;3098;42.678;23.364;2022-08-14T00:32:44;94365.63;;;17.66;100.00
6134;BME280;3098;42.678;23.364;2022-08-14T00:35:11;94379.72;;;17.60;100.00
6134;BME280;3098;42.678;23.364;2022-08-14T00:37:42;94351.13;;;17.41;100.00
6134;BME280;3098;42.678;23.364;2022-08-14T00:40:13;94375.88;;;17.57;100.00
6134;BME280;3098;42.678;23.364;2022-08-14T00:42:43;94358.38;;;17.41;100.00
6134;BME280;3098;42.678;23.364;2022-08-14T00:45:12;94372.06;;;17.58;100.00
6134;BME280;3098;42.678;23.364;2022-08-14T00:47:42;94375.91;;;17.61;100.00
6134;BME280;3098;42.678;23.364;2022-08-14T00:50:14;94371.44;;;17.72;100.00
6134;BME280;3098;42.678;23.364;2022-08-14T00:52:42;94367.53;;;17.66;100.00
6134;BME280;3098;42.678;23.364;2022-08-14T00:55:10;94363.06;;;17.73;100.00
6134;BME280;3098;42.678;23.364;2022-08-14T00:57:37;94363.94;;;17.85;100.00
6134;BME280;3098;42.678;23.364;2022-08-14T01:00:06;94341.25;;;17.78;100.00
6134;BME280;3098;42.678;23.364;2022-08-14T01:02:35;94340.97;;;17.87;100.00
6134;BME280;3098;42.678;23.364;2022-08-14T01:05:04;94326.00;;;17.86;100.00
6134;BME280;3098;42.678;23.364;2022-08-14T01:07:33;94337.91;;;17.89;100.00
6134;BME280;3098;42.678;23.364;2022-08-14T01:10:02;94341.72;;;17.84;100.00
6134;BME280;3098;42.678;23.364;2022-08-14T01:12:30;94349.66;;;17.73;100.00
6134;BME280;3098;42.678;23.364;2022-08-14T01:14:59;94345.19;;;17.55;100.00
6134;BME280;3098;42.678;23.364;2022-08-14T01:17:28;94334.66;;;17.43;100.00
6134;BME280;3098;42.678;23.364;2022-08-14T01:20:10;94329.56;;;17.34;100.00
6134;BME280;3098;42.678;23.364;2022-08-14T01:22:56;94328.84;;;17.37;100.00
6134;BME280;3098;42.678;23.364;2022-08-14T01:25:24;94333.47;;;17.40;100.00
6134;BME280;3098;42.678;23.364;2022-08-14T01:27:50;94324.97;;;17.31;100.00
6134;BME280;3098;42.678;23.364;2022-08-14T01:30:23;94327.78;;;17.42;100.00
6134;BME280;3098;42.678;23.364;2022-08-14T01:32:51;94320.06;;;17.37;100.00
6134;BME280;3098;42.678;23.364;2022-08-14T01:35:18;94329.28;;;17.39;100.00
6134;BME280;3098;42.678;23.364;2022-08-14T01:37:46;94329.28;;;17.39;100.00
6134;BME280;3098;42.678;23.364;2022-08-14T01:40:14;94288.44;;;17.19;100.00
6134;BME280;3098;42.678;23.364;2022-08-14T01:42:42;94325.00;;;17.35;100.00
6134;BME280;3098;42.678;23.364;2022-08-14T01:45:10;94321.97;;;17.36;100.00
6134;BME280;3098;42.678;23.364;2022-08-14T01:47:38;94320.06;;;17.40;100.00
6134;BME280;3098;42.678;23.364;2022-08-14T01:50:07;94324.22;;;17.34;100.00
6134;BME280;3098;42.678;23.364;2022-08-14T01:52:35;94337.59;;;17.34;100.00
6134;BME280;3098;42.678;23.364;2022-08-14T01:55:04;94312.19;;;17.21;100.00
6134;BME280;3098;42.678;23.364;2022-08-14T01:57:34;94312.22;;;17.24;100.00
6134;BME280;3098;42.678;23.364;2022-08-14T02:00:03;94301.91;;;17.27;100.00
6134;BME280;3098;42.678;23.364;2022-08-14T02:02:30;94317.66;;;17.28;100.00
6134;BME280;3098;42.678;23.364;2022-08-14T02:04:57;94325.00;;;17.35;100.00
6134;BME280;3098;42.678;23.364;2022-08-14T02:07:25;94309.72;;;17.09;100.00
6134;BME280;3098;42.678;23.364;2022-08-14T02:09:57;94328.41;;;17.32;100.00
6134;BME280;3098;42.678;23.364;2022-08-14T02:12:25;94296.38;;;17.12;100.00
6134;BME280;3098;42.678;23.364;2022-08-14T02:14:55;94322.19;;;17.24;100.00
6134;BME280;3098;42.678;23.364;2022-08-14T02:17:26;94318.41;;;17.29;100.00
6134;BME280;3098;42.678;23.364;2022-08-14T02:19:54;94320.06;;;17.37;100.00
6134;BME280;3098;42.678;23.364;2022-08-14T02:22:21;94321.22;;;17.39;100.00
6134;BME280;3098;42.678;23.364;2022-08-14T02:24:48;94300.94;;;17.08;100.00
6134;BME280;3098;42.678;23.364;2022-08-14T02:27:15;94313.31;;;17.20;100.00
6134;BME280;3098;42.678;23.364;2022-08-14T02:29:44;94306.00;;;17.17;100.00
6134;BME280;3098;42.678;23.364;2022-08-14T02:32:13;94309.59;;;17.28;100.00
6134;BME280;3098;42.678;23.364;2022-08-14T02:34:42;94294.00;;;17.07;100.00
6134;BME280;3098;42.678;23.364;2022-08-14T02:37:10;94316.16;;;17.34;100.00
6134;BME280;3098;42.678;23.364;2022-08-14T02:39:40;94312.47;;;17.42;100.00
6134;BME280;3098;42.678;23.364;2022-08-14T02:42:11;94315.63;;;17.51;100.00
6134;BME280;3098;42.678;23.364;2022-08-14T02:44:42;94300.53;;;17.40;100.00
6134;BME280;3098;42.678;23.364;2022-08-14T02:47:14;94317.00;;;17.38;100.00
6134;BME280;3098;42.678;23.364;2022-08-14T02:49:42;94282.69;;;17.21;100.00
6134;BME280;3098;42.678;23.364;2022-08-14T02:52:10;94309.84;;;17.49;100.00
6134;BME280;3098;42.678;23.364;2022-08-14T02:54:37;94298.44;;;17.22;100.00
6134;BME280;3098;42.678;23.364;2022-08-14T02:57:05;94289.63;;;17.22;100.00
6134;BME280;3098;42.678;23.364;2022-08-14T02:59:33;94307.44;;;17.41;100.00
6134;BME280;3098;42.678;23.364;2022-08-14T03:02:02;94300.63;;;17.47;100.00
6134;BME280;3098;42.678;23.364;2022-08-14T03:04:31;94311.41;;;17.50;100.00
6134;BME280;3098;42.678;23.364;2022-08-14T03:06:58;94315.25;;;17.53;100.00
6134;BME280;3098;42.678;23.364;2022-08-14T03:09:25;94309.06;;;17.45;100.00
6134;BME280;3098;42.678;23.364;2022-08-14T03:11:53;94305.31;;;17.53;100.00
6134;BME280;3098;42.678;23.364;2022-08-14T03:14:20;94289.91;;;17.47;100.00
6134;BME280;3098;42.678;23.364;2022-08-14T03:16:50;94302.09;;;17.41;100.00
6134;BME280;3098;42.678;23.364;2022-08-14T03:19:17;94308.09;;;17.60;100.00
6134;BME280;3098;42.678;23.364;2022-08-14T03:21:46;94290.63;;;17.44;100.00
6134;BME280;3098;42.678;23.364;2022-08-14T03:24:13;94309.22;;;17.56;100.00
6134;BME280;3098;42.678;23.364;2022-08-14T03:26:43;94311.69;;;17.42;100.00
6134;BME280;3098;42.678;23.364;2022-08-14T03:29:15;94303.09;;;17.29;100.00
6134;BME280;3098;42.678;23.364;2022-08-14T03:31:45;94316.28;;;17.41;100.00
6134;BME280;3098;42.678;23.364;2022-08-14T03:34:15;94307.59;;;17.21;100.00
6134;BME280;3098;42.678;23.364;2022-08-14T03:36:43;94334.25;;;17.41;100.00
6134;BME280;3098;42.678;23.364;2022-08-14T03:39:12;94332.25;;;17.34;100.00
6134;BME280;3098;42.678;23.364;2022-08-14T03:41:39;94332.69;;;17.40;100.00
6134;BME280;3098;42.678;23.364;2022-08-14T03:44:06;94324.25;;;17.38;100.00
6134;BME280;3098;42.678;23.364;2022-08-14T03:46:35;94335.44;;;17.43;100.00
6134;BME280;3098;42.678;23.364;2022-08-14T03:49:03;94290.97;;;17.09;100.00
6134;BME280;3098;42.678;23.364;2022-08-14T03:51:31;94325.69;;;17.28;100.00
6134;BME280;3098;42.678;23.364;2022-08-14T03:54:00;94316.25;;;17.11;100.00
6134;BME280;3098;42.678;23.364;2022-08-14T03:56:30;94337.13;;;17.25;100.00
6134;BME280;3098;42.678;23.364;2022-08-14T03:59:00;94247.50;;;16.63;100.00
6134;BME280;3098;42.678;23.364;2022-08-14T04:01:27;94322.44;;;17.15;100.00
6134;BME280;3098;42.678;23.364;2022-08-14T04:03:55;94299.69;;;17.02;100.00
6134;BME280;3098;42.678;23.364;2022-08-14T04:06:30;94304.13;;;17.21;100.00
6134;BME280;3098;42.678;23.364;2022-08-14T04:08:57;94330.06;;;17.43;100.00
6134;BME280;3098;42.678;23.364;2022-08-14T04:11:25;94312.97;;;17.21;100.00
6134;BME280;3098;42.678;23.364;2022-08-14T04:13:55;94291.88;;;17.20;100.00
6134;BME280;3098;42.678;23.364;2022-08-14T04:16:22;94320.81;;;17.37;100.00
6134;BME280;3098;42.678;23.364;2022-08-14T04:18:51;94338.75;;;17.33;100.00
6134;BME280;3098;42.678;23.364;2022-08-14T04:21:20;94330.31;;;17.31;100.00
6134;BME280;3098;42.678;23.364;2022-08-14T04:23:50;94334.59;;;17.36;100.00
6134;BME280;3098;42.678;23.364;2022-08-14T04:26:17;94294.91;;;17.18;100.00
6134;BME280;3098;42.678;23.364;2022-08-14T04:28:47;94338.19;;;17.76;100.00
6134;BME280;3098;42.678;23.364;2022-08-14T04:31:17;94331.63;;;17.74;100.00
6134;BME280;3098;42.678;23.364;2022-08-14T04:33:44;94328.28;;;17.51;100.00
6134;BME280;3098;42.678;23.364;2022-08-14T04:36:13;94336.78;;;17.56;100.00
6134;BME280;3098;42.678;23.364;2022-08-14T04:38:39;94334.03;;;17.53;100.00
6134;BME280;3098;42.678;23.364;2022-08-14T04:41:24;94329.28;;;17.43;100.00
6134;BME280;3098;42.678;23.364;2022-08-14T04:44:08;94321.19;;;17.36;100.00
6134;BME280;3098;42.678;23.364;2022-08-14T04:46:37;94336.53;;;17.39;100.00
6134;BME280;3098;42.678;23.364;2022-08-14T04:49:04;94324.66;;;17.40;100.00
6134;BME280;3098;42.678;23.364;2022-08-14T04:51:30;94329.69;;;17.41;100.00
6134;BME280;3098;42.678;23.364;2022-08-14T04:53:58;94315.41;;;17.34;100.00
6134;BME280;3098;42.678;23.364;2022-08-14T04:56:26;94330.53;;;17.49;100.00
6134;BME280;3098;42.678;23.364;2022-08-14T04:58:59;94329.81;;;17.52;100.00
6134;BME280;3098;42.678;23.364;2022-08-14T05:01:29;94333.78;;;17.61;100.00
6134;BME280;3098;42.678;23.364;2022-08-14T05:03:58;94316.91;;;17.61;100.00
6134;BME280;3098;42.678;23.364;2022-08-14T05:06:25;94336.00;;;17.89;100.00
6134;BME280;3098;42.678;23.364;2022-08-14T05:08:53;94330.28;;;17.91;100.00
6134;BME280;3098;42.678;23.364;2022-08-14T05:11:20;94316.47;;;17.89;100.00
6134;BME280;3098;42.678;23.364;2022-08-14T05:13:47;94320.16;;;18.14;100.00
6134;BME280;3098;42.678;23.364;2022-08-14T05:16:15;94320.59;;;18.16;100.00
6134;BME280;3098;42.678;23.364;2022-08-14T05:18:42;94333.34;;;18.29;100.00
6134;BME280;3098;42.678;23.364;2022-08-14T05:21:12;94338.47;;;18.45;100.00
6134;BME280;3098;42.678;23.364;2022-08-14T05:23:39;94346.63;;;18.52;100.00
6134;BME280;3098;42.678;23.364;2022-08-14T05:26:07;94322.59;;;18.26;100.00
6134;BME280;3098;42.678;23.364;2022-08-14T05:28:40;94342.34;;;18.48;100.00
6134;BME280;3098;42.678;23.364;2022-08-14T05:31:09;94294.81;;;18.08;100.00
6134;BME280;3098;42.678;23.364;2022-08-14T05:33:38;94340.41;;;18.45;100.00
6134;BME280;3098;42.678;23.364;2022-08-14T05:36:08;94337.44;;;18.16;100.00
6134;BME280;3098;42.678;23.364;2022-08-14T05:38:39;94330.97;;;18.21;100.00
6134;BME280;3098;42.678;23.364;2022-08-14T05:41:08;94338.34;;;18.27;100.00
6134;BME280;3098;42.678;23.364;2022-08-14T05:43:38;94344.78;;;18.23;100.00
6134;BME280;3098;42.678;23.364;2022-08-14T05:46:06;94336.31;;;18.17;100.00
6134;BME280;3098;42.678;23.364;2022-08-14T05:48:35;94326.56;;;18.02;100.00
6134;BME280;3098;42.678;23.364;2022-08-14T05:51:02;94329.66;;;18.04;100.00
6134;BME280;3098;42.678;23.364;2022-08-14T05:53:29;94341.03;;;18.31;100.00
6134;BME280;3098;42.678;23.364;2022-08-14T05:55:58;94341.53;;;18.44;100.00
6134;BME280;3098;42.678;23.364;2022-08-14T05:58:26;94338.94;;;18.51;100.00
6134;BME280;3098;42.678;23.364;2022-08-14T06:00:53;94333.50;;;18.44;100.00
6134;BME280;3098;42.678;23.364;2022-08-14T06:03:22;94321.31;;;18.13;100.00
6134;BME280;3098;42.678;23.364;2022-08-14T06:05:51;94339.28;;;18.09;100.00
6134;BME280;3098;42.678;23.364;2022-08-14T06:08:20;94310.69;;;17.87;100.00
6134;BME280;3098;42.678;23.364;2022-08-14T06:10:51;94342.38;;;18.11;100.00
6134;BME280;3098;42.678;23.364;2022-08-14T06:13:20;94348.50;;;18.11;100.00
6134;BME280;3098;42.678;23.364;2022-08-14T06:15:48;94349.16;;;18.38;100.00
6134;BME280;3098;42.678;23.364;2022-08-14T06:18:16;94357.53;;;18.29;100.00
6134;BME280;3098;42.678;23.364;2022-08-14T06:20:44;94356.28;;;18.60;100.00
6134;BME280;3098;42.678;23.364;2022-08-14T06:23:11;94353.38;;;18.79;100.00
6134;BME280;3098;42.678;23.364;2022-08-14T06:25:38;94358.94;;;18.53;100.00
6134;BME280;3098;42.678;23.364;2022-08-14T06:28:05;94337.78;;;18.48;100.00
6134;BME280;3098;42.678;23.364;2022-08-14T06:30:34;94363.22;;;18.61;100.00
6134;BME280;3098;42.678;23.364;2022-08-14T06:33:01;94353.22;;;18.62;100.00
6134;BME280;3098;42.678;23.364;2022-08-14T06:35:28;94350.69;;;18.35;100.00
6134;BME280;3098;42.678;23.364;2022-08-14T06:37:58;94354.06;;;18.29;100.00
6134;BME280;3098;42.678;23.364;2022-08-14T06:40:27;94348.69;;;18.29;100.00
6134;BME280;3098;42.678;23.364;2022-08-14T06:42:54;94369.19;;;18.44;100.00
6134;BME280;3098;42.678;23.364;2022-08-14T06:45:22;94370.25;;;18.36;100.00
6134;BME280;3098;42.678;23.364;2022-08-14T06:47:51;94363.84;;;18.11;100.00
6134;BME280;3098;42.678;23.364;2022-08-14T06:50:21;94272.91;;;17.65;100.00
6134;BME280;3098;42.678;23.364;2022-08-14T06:52:49;94359.78;;;18.24;100.00
6134;BME280;3098;42.678;23.364;2022-08-14T06:55:17;94362.34;;;18.13;100.00
6134;BME280;3098;42.678;23.364;2022-08-14T06:57:47;94367.34;;;18.15;100.00
6134;BME280;3098;42.678;23.364;2022-08-14T07:00:18;94363.41;;;18.05;100.00
6134;BME280;3098;42.678;23.364;2022-08-14T07:02:45;94327.34;;;18.03;100.00
6134;BME280;3098;42.678;23.364;2022-08-14T07:05:32;94366.72;;;18.28;100.00
6134;BME280;3098;42.678;23.364;2022-08-14T07:08:16;94304.78;;;17.74;100.00
6134;BME280;3098;42.678;23.364;2022-08-14T07:10:44;94373.72;;;18.40;100.00
6134;BME280;3098;42.678;23.364;2022-08-14T07:13:12;94367.88;;;18.27;100.00
6134;BME280;3098;42.678;23.364;2022-08-14T07:15:40;94344.00;;;18.19;100.00
6134;BME280;3098;42.678;23.364;2022-08-14T07:18:08;94364.41;;;18.27;100.00
6134;BME280;3098;42.678;23.364;2022-08-14T07:20:38;94355.94;;;18.25;100.00
6134;BME280;3098;42.678;23.364;2022-08-14T07:23:06;94329.75;;;18.15;100.00
6134;BME280;3098;42.678;23.364;2022-08-14T07:25:34;94355.66;;;18.37;100.00
6134;BME280;3098;42.678;23.364;2022-08-14T07:28:08;94359.66;;;18.50;100.00
6134;BME280;3098;42.678;23.364;2022-08-14T07:30:35;94374.41;;;18.70;100.00
6134;BME280;3098;42.678;23.364;2022-08-14T07:33:02;94368.81;;;18.93;100.00
6134;BME280;3098;42.678;23.364;2022-08-14T07:35:30;94365.16;;;19.15;100.00
6134;BME280;3098;42.678;23.364;2022-08-14T07:37:58;94360.63;;;19.26;100.00
6134;BME280;3098;42.678;23.364;2022-08-14T07:40:25;94326.34;;;19.09;100.00
6134;BME280;3098;42.678;23.364;2022-08-14T07:42:52;94366.44;;;19.35;100.00
6134;BME280;3098;42.678;23.364;2022-08-14T07:45:20;94371.56;;;19.55;100.00
6134;BME280;3098;42.678;23.364;2022-08-14T07:47:47;94376.59;;;19.63;100.00
6134;BME280;3098;42.678;23.364;2022-08-14T07:50:16;94378.47;;;19.52;100.00
6134;BME280;3098;42.678;23.364;2022-08-14T07:52:45;94379.16;;;19.42;100.00
6134;BME280;3098;42.678;23.364;2022-08-14T07:55:15;94368.13;;;19.58;100.00
6134;BME280;3098;42.678;23.364;2022-08-14T07:57:44;94374.34;;;19.72;100.00
6134;BME280;3098;42.678;23.364;2022-08-14T08:00:14;94383.09;;;19.55;100.00
6134;BME280;3098;42.678;23.364;2022-08-14T08:02:44;94378.81;;;19.47;100.00
6134;BME280;3098;42.678;23.364;2022-08-14T08:05:13;94343.00;;;19.32;100.00
6134;BME280;3098;42.678;23.364;2022-08-14T08:07:41;94357.72;;;19.49;100.00
6134;BME280;3098;42.678;23.364;2022-08-14T08:10:11;94382.28;;;19.47;100.00
6134;BME280;3098;42.678;23.364;2022-08-14T08:13:00;94372.78;;;19.71;100.00
6134;BME280;3098;42.678;23.364;2022-08-14T08:15:31;94378.59;;;19.84;100.00
6134;BME280;3098;42.678;23.364;2022-08-14T08:17:59;94352.72;;;19.51;100.00
6134;BME280;3098;42.678;23.364;2022-08-14T08:20:30;94364.50;;;19.32;100.00
6134;BME280;3098;42.678;23.364;2022-08-14T08:22:58;94300.53;;;18.98;100.00
6134;BME280;3098;42.678;23.364;2022-08-14T08:25:28;94366.22;;;19.58;100.00
6134;BME280;3098;42.678;23.364;2022-08-14T08:28:01;94361.25;;;19.71;100.00
6134;BME280;3098;42.678;23.364;2022-08-14T08:30:31;94360.78;;;19.51;100.00
6134;BME280;3098;42.678;23.364;2022-08-14T08:33:00;94352.34;;;19.56;100.00
6134;BME280;3098;42.678;23.364;2022-08-14T08:35:29;94353.16;;;19.67;100.00
6134;BME280;3098;42.678;23.364;2022-08-14T08:38:02;94337.31;;;19.48;100.00
6134;BME280;3098;42.678;23.364;2022-08-14T08:40:32;94325.88;;;19.65;100.00
6134;BME280;3098;42.678;23.364;2022-08-14T08:43:04;94371.72;;;19.90;100.00
6134;BME280;3098;42.678;23.364;2022-08-14T08:45:33;94362.91;;;20.00;100.00
6134;BME280;3098;42.678;23.364;2022-08-14T08:48:01;94332.16;;;19.97;100.00
6134;BME280;3098;42.678;23.364;2022-08-14T08:50:31;94369.56;;;20.34;100.00
6134;BME280;3098;42.678;23.364;2022-08-14T08:53:02;94366.91;;;20.45;100.00
6134;BME280;3098;42.678;23.364;2022-08-14T08:55:32;94242.91;;;19.85;100.00
6134;BME280;3098;42.678;23.364;2022-08-14T08:58:01;94371.16;;;20.85;100.00
6134;BME280;3098;42.678;23.364;2022-08-14T09:00:32;94348.00;;;20.38;100.00
6134;BME280;3098;42.678;23.364;2022-08-14T09:03:11;94273.31;;;20.06;100.00
6134;BME280;3098;42.678;23.364;2022-08-14T09:06:07;94249.44;;;19.87;100.00
6134;BME280;3098;42.678;23.364;2022-08-14T09:08:44;94348.44;;;20.96;100.00
6134;BME280;3098;42.678;23.364;2022-08-14T09:11:11;94344.59;;;20.94;100.00
6134;BME280;3098;42.678;23.364;2022-08-14T09:13:38;94340.75;;;20.77;100.00
6134;BME280;3098;42.678;23.364;2022-08-14T09:16:07;94339.19;;;21.01;100.00
6134;BME280;3098;42.678;23.364;2022-08-14T09:18:34;94341.88;;;20.87;100.00
6134;BME280;3098;42.678;23.364;2022-08-14T09:21:02;94294.56;;;20.40;100.00
6134;BME280;3098;42.678;23.364;2022-08-14T09:23:29;94342.69;;;20.91;100.00
6134;BME280;3098;42.678;23.364;2022-08-14T09:25:57;94319.53;;;21.04;100.00
6134;BME280;3098;42.678;23.364;2022-08-14T09:28:24;94321.50;;;20.50;100.00
6134;BME280;3098;42.678;23.364;2022-08-14T09:30:53;94330.34;;;20.40;100.00
6134;BME280;3098;42.678;23.364;2022-08-14T09:33:57;94341.53;;;20.74;100.00
6134;BME280;3098;42.678;23.364;2022-08-14T09:36:35;94336.47;;;20.97;100.00
6134;BME280;3098;42.678;23.364;2022-08-14T09:39:07;94338.72;;;21.55;98.60
6134;BME280;3098;42.678;23.364;2022-08-14T09:41:46;94340.94;;;21.85;96.06
6134;BME280;3098;42.678;23.364;2022-08-14T09:44:27;94329.38;;;21.88;97.38
6134;BME280;3098;42.678;23.364;2022-08-14T09:46:56;94342.19;;;23.01;91.72
6134;BME280;3098;42.678;23.364;2022-08-14T09:49:33;94344.22;;;22.86;90.67
6134;BME280;3098;42.678;23.364;2022-08-14T09:52:03;94308.34;;;23.23;87.75
6134;BME280;3098;42.678;23.364;2022-08-14T09:54:36;94351.34;;;23.11;88.65
6134;BME280;3098;42.678;23.364;2022-08-14T09:57:05;94343.56;;;22.75;89.09
6134;BME280;3098;42.678;23.364;2022-08-14T09:59:41;94322.97;;;22.85;87.10
6134;BME280;3098;42.678;23.364;2022-08-14T10:02:22;94331.41;;;22.94;87.98
6134;BME280;3098;42.678;23.364;2022-08-14T10:05:03;94333.84;;;23.97;85.64
6134;BME280;3098;42.678;23.364;2022-08-14T10:07:32;94337.81;;;23.89;82.57
6134;BME280;3098;42.678;23.364;2022-08-14T10:09:59;94328.78;;;23.28;83.92
6134;BME280;3098;42.678;23.364;2022-08-14T10:12:41;94342.59;;;23.40;84.82
6134;BME280;3098;42.678;23.364;2022-08-14T10:15:16;94334.97;;;23.66;84.50
6134;BME280;3098;42.678;23.364;2022-08-14T10:17:44;94331.19;;;24.50;80.02
6134;BME280;3098;42.678;23.364;2022-08-14T10:20:15;94311.78;;;23.65;81.18
6134;BME280;3098;42.678;23.364;2022-08-14T10:22:46;94285.19;;;23.19;82.98
6134;BME280;3098;42.678;23.364;2022-08-14T10:25:15;94276.53;;;23.34;82.70
6134;BME280;3098;42.678;23.364;2022-08-14T10:27:44;94315.81;;;23.12;85.20
6134;BME280;3098;42.678;23.364;2022-08-14T10:30:16;94321.34;;;23.39;83.29
6134;BME280;3098;42.678;23.364;2022-08-14T10:32:45;94321.34;;;24.37;79.66
6134;BME280;3098;42.678;23.364;2022-08-14T10:35:15;94318.63;;;24.37;78.50
6134;BME280;3098;42.678;23.364;2022-08-14T10:37:45;94310.28;;;23.94;78.71
6134;BME280;3098;42.678;23.364;2022-08-14T10:40:15;94303.75;;;23.88;79.93
6134;BME280;3098;42.678;23.364;2022-08-14T10:42:51;94286.09;;;23.76;79.12
6134;BME280;3098;42.678;23.364;2022-08-14T10:45:20;94306.31;;;23.68;79.34
6134;BME280;3098;42.678;23.364;2022-08-14T10:47:50;94242.34;;;23.51;80.65
6134;BME280;3098;42.678;23.364;2022-08-14T10:50:28;94289.59;;;23.77;79.36
6134;BME280;3098;42.678;23.364;2022-08-14T10:52:56;94289.63;;;24.03;77.81
6134;BME280;3098;42.678;23.364;2022-08-14T10:55:31;94283.38;;;24.10;77.61
6134;BME280;3098;42.678;23.364;2022-08-14T10:57:58;94292.72;;;24.59;76.66
6134;BME280;3098;42.678;23.364;2022-08-14T11:00:27;94281.06;;;23.78;76.46
6134;BME280;3098;42.678;23.364;2022-08-14T11:02:59;94279.03;;;23.86;77.04
6134;BME280;3098;42.678;23.364;2022-08-14T11:05:39;94280.19;;;24.69;74.38
6134;BME280;3098;42.678;23.364;2022-08-14T11:08:08;94266.69;;;25.11;72.54
6134;BME280;3098;42.678;23.364;2022-08-14T11:10:43;94273.34;;;24.84;72.82
6134;BME280;3098;42.678;23.364;2022-08-14T11:13:15;94275.84;;;24.48;74.24
6134;BME280;3098;42.678;23.364;2022-08-14T11:15:43;94264.59;;;24.26;73.35
6134;BME280;3098;42.678;23.364;2022-08-14T11:18:11;94268.44;;;24.75;72.36
6134;BME280;3098;42.678;23.364;2022-08-14T11:20:44;94230.03;;;25.43;69.13
6134;BME280;3098;42.678;23.364;2022-08-14T11:23:14;94265.44;;;27.44;62.62
6134;BME280;3098;42.678;23.364;2022-08-14T11:25:44;94270.66;;;27.79;59.53
6134;BME280;3098;42.678;23.364;2022-08-14T11:28:12;94266.44;;;26.56;63.85
6134;BME280;3098;42.678;23.364;2022-08-14T11:30:41;94243.75;;;25.75;66.68
6134;BME280;3098;42.678;23.364;2022-08-14T11:33:10;94261.25;;;25.74;67.34
6134;BME280;3098;42.678;23.364;2022-08-14T11:35:37;94260.69;;;26.18;63.82
6134;BME280;3098;42.678;23.364;2022-08-14T11:38:09;94259.94;;;25.62;64.19
6134;BME280;3098;42.678;23.364;2022-08-14T11:40:38;94271.03;;;25.29;65.68
6134;BME280;3098;42.678;23.364;2022-08-14T11:43:08;94260.94;;;25.68;64.48
6134;BME280;3098;42.678;23.364;2022-08-14T11:45:37;94268.53;;;25.77;64.38
6134;BME280;3098;42.678;23.364;2022-08-14T11:48:16;94247.00;;;25.47;64.54
6134;BME280;3098;42.678;23.364;2022-08-14T11:50:44;94269.78;;;25.73;64.58
6134;BME280;3098;42.678;23.364;2022-08-14T11:53:20;94272.47;;;24.90;67.67
6134;BME280;3098;42.678;23.364;2022-08-14T11:55:54;94264.13;;;24.78;68.03
6134;BME280;3098;42.678;23.364;2022-08-14T11:58:27;94260.50;;;24.15;69.49
6134;BME280;3098;42.678;23.364;2022-08-14T12:00:57;94248.78;;;23.91;70.88
6134;BME280;3098;42.678;23.364;2022-08-14T12:03:37;94257.72;;;24.18;70.92
6134;BME280;3098;42.678;23.364;2022-08-14T12:06:07;94262.91;;;24.32;71.06
6134;BME280;3098;42.678;23.364;2022-08-14T12:08:37;94215.13;;;24.19;71.08
6134;BME280;3098;42.678;23.364;2022-08-14T12:11:09;94264.56;;;24.76;69.52
6134;BME280;3098;42.678;23.364;2022-08-14T12:13:37;94242.91;;;23.96;71.21
6134;BME280;3098;42.678;23.364;2022-08-14T12:16:06;94247.94;;;23.67;72.42
6134;BME280;3098;42.678;23.364;2022-08-14T12:18:35;94250.38;;;23.58;72.15
6134;BME280;3098;42.678;23.364;2022-08-14T12:21:10;94252.25;;;23.27;74.59
6134;BME280;3098;42.678;23.364;2022-08-14T12:23:39;94253.75;;;22.95;75.88
6134;BME280;3098;42.678;23.364;2022-08-14T12:26:07;94238.16;;;23.09;75.26
6134;BME280;3098;42.678;23.364;2022-08-14T12:28:35;94221.22;;;23.02;74.95
6134;BME280;3098;42.678;23.364;2022-08-14T12:31:12;94233.22;;;23.38;74.96
6134;BME280;3098;42.678;23.364;2022-08-14T12:33:53;94161.34;;;22.62;75.71
6134;BME280;3098;42.678;23.364;2022-08-14T12:36:21;94207.81;;;22.91;76.19
6134;BME280;3098;42.678;23.364;2022-08-14T12:38:49;94230.50;;;23.04;77.34
6134;BME280;3098;42.678;23.364;2022-08-14T12:41:18;94227.66;;;22.77;79.78
6134;BME280;3098;42.678;23.364;2022-08-14T12:43:48;94212.50;;;22.43;82.36
6134;BME280;3098;42.678;23.364;2022-08-14T12:46:26;94178.50;;;21.97;83.59
6134;BME280;3098;42.678;23.364;2022-08-14T12:48:56;94232.84;;;22.03;85.59
6134;BME280;3098;42.678;23.364;2022-08-14T12:51:25;94201.88;;;21.56;87.39
6134;BME280;3098;42.678;23.364;2022-08-14T12:53:56;94220.91;;;22.00;87.05
6134;BME280;3098;42.678;23.364;2022-08-14T12:56:24;94231.13;;;21.68;87.79
6134;BME280;3098;42.678;23.364;2022-08-14T12:58:56;94220.00;;;21.52;90.01
6134;BME280;3098;42.678;23.364;2022-08-14T13:01:26;94230.13;;;21.30;91.29
6134;BME280;3098;42.678;23.364;2022-08-14T13:04:03;94093.34;;;20.23;94.46
6134;BME280;3098;42.678;23.364;2022-08-14T13:06:32;94207.94;;;20.80;96.70
6134;BME280;3098;42.678;23.364;2022-08-14T13:09:02;94217.97;;;20.62;97.77
6134;BME280;3098;42.678;23.364;2022-08-14T13:11:35;94190.66;;;20.39;100.00
6134;BME280;3098;42.678;23.364;2022-08-14T13:14:03;94202.19;;;20.46;100.00
6134;BME280;3098;42.678;23.364;2022-08-14T13:16:30;94194.88;;;20.33;100.00